createdAt,value
2018-03-25T00:00:06.106Z,72.40
2018-03-25T00:02:33.590Z,72.50
2018-03-25T00:05:01.064Z,72.30
2018-03-25T00:07:28.589Z,72.20
2018-03-25T00:09:56.068Z,72.70
2018-03-25T00:12:23.554Z,72.80
2018-03-25T00:14:51.009Z,72.80
2018-03-25T00:17:18.484Z,72.30
2018-03-25T00:19:46.708Z,72.20
2018-03-25T00:22:14.193Z,72.10
2018-03-25T00:24:41.661Z,72.60
2018-03-25T00:27:09.141Z,72.60
2018-03-25T00:29:37.378Z,72.40
2018-03-25T00:32:04.865Z,72.40
2018-03-25T00:34:33.102Z,72.50
2018-03-25T00:37:00.582Z,72.40
2018-03-25T00:39:28.046Z,72.80
2018-03-25T00:41:55.541Z,72.90
2018-03-25T00:44:23.005Z,71.80
2018-03-25T00:46:50.470Z,72.30
2018-03-25T00:49:17.942Z,72.30
2018-03-25T00:51:45.418Z,72.70
2018-03-25T00:54:12.889Z,72.70
2018-03-25T00:56:40.364Z,72.50
2018-03-25T00:59:08.605Z,72.90
2018-03-25T01:01:36.077Z,72.80
2018-03-25T01:04:03.554Z,72.70
2018-03-25T01:06:31.790Z,72.80
2018-03-25T01:08:59.254Z,72.70
2018-03-25T01:11:26.728Z,72.90
2018-03-25T01:13:54.199Z,72.50
2018-03-25T01:16:22.432Z,72.90
2018-03-25T01:18:49.906Z,72.80
2018-03-25T01:21:17.380Z,73.20
2018-03-25T01:23:44.860Z,73.20
2018-03-25T01:26:13.089Z,74.10
2018-03-25T01:28:40.564Z,74.10
2018-03-25T01:31:08.023Z,74.00
2018-03-25T01:33:35.555Z,74.90
2018-03-25T01:36:02.993Z,75.00
2018-03-25T01:38:30.462Z,74.70
2018-03-25T01:40:57.920Z,74.90
2018-03-25T01:43:25.388Z,74.90
2018-03-25T01:45:52.853Z,74.60
2018-03-25T01:48:20.360Z,74.80
2018-03-25T01:50:47.827Z,74.30
2018-03-25T01:53:15.310Z,72.80
2018-03-25T01:55:42.773Z,72.60
2018-03-25T01:58:10.228Z,72.80
2018-03-25T02:00:37.696Z,73.00
2018-03-25T02:03:05.161Z,72.20
2018-03-25T02:05:32.644Z,73.30
2018-03-25T02:08:00.876Z,72.50
2018-03-25T02:10:28.345Z,72.50
2018-03-25T02:12:55.804Z,73.00
2018-03-25T02:15:23.282Z,72.20
2018-03-25T02:17:50.738Z,72.60
2018-03-25T02:20:18.210Z,73.40
2018-03-25T02:22:46.440Z,72.90
2018-03-25T02:25:13.917Z,72.90
2018-03-25T02:27:41.386Z,72.90
2018-03-25T02:30:08.858Z,72.80
2018-03-25T02:32:37.106Z,72.50
2018-03-25T02:35:04.587Z,72.40
2018-03-25T02:37:32.815Z,72.50
2018-03-25T02:40:00.288Z,72.40
2018-03-25T02:42:27.751Z,72.90
2018-03-25T02:44:55.241Z,73.50
2018-03-25T02:47:23.478Z,73.70
2018-03-25T02:49:50.961Z,73.70
2018-03-25T02:52:18.417Z,74.30
2018-03-25T02:54:45.887Z,74.10
2018-03-25T02:57:14.139Z,74.90
2018-03-25T02:59:41.606Z,74.80
2018-03-25T03:02:09.076Z,74.60
2018-03-25T03:04:37.306Z,74.50
2018-03-25T03:07:04.788Z,74.50
2018-03-25T03:09:32.262Z,74.60
2018-03-25T03:11:59.729Z,74.90
2018-03-25T03:14:27.952Z,74.30
2018-03-25T03:16:55.422Z,74.30
2018-03-25T03:19:22.894Z,74.50
2018-03-25T03:21:50.379Z,74.30
2018-03-25T03:24:18.602Z,74.20
2018-03-25T03:26:46.067Z,74.20
2018-03-25T03:29:13.524Z,73.80
2018-03-25T03:31:41.010Z,73.50
2018-03-25T03:34:08.476Z,73.20
2018-03-25T03:36:35.960Z,73.50
2018-03-25T03:39:03.438Z,73.10
2018-03-25T03:41:30.908Z,72.10
2018-03-25T03:43:58.381Z,71.80
2018-03-25T03:46:25.848Z,72.00
2018-03-25T03:48:53.320Z,71.10
2018-03-25T03:51:21.560Z,71.60
2018-03-25T03:53:49.015Z,71.40
2018-03-25T03:56:16.496Z,71.30
2018-03-25T03:58:43.962Z,70.90
2018-03-25T04:01:11.451Z,72.20
2018-03-25T04:03:38.933Z,72.10
2018-03-25T04:06:06.393Z,72.20
2018-03-25T04:08:33.880Z,72.30
2018-03-25T04:11:01.341Z,73.00
2018-03-25T04:13:28.808Z,73.10
2018-03-25T04:15:56.273Z,72.90
2018-03-25T04:18:23.753Z,73.40
2018-03-25T04:20:51.212Z,72.80
2018-03-25T04:23:18.688Z,73.00
2018-03-25T04:25:46.152Z,72.40
2018-03-25T04:28:13.626Z,72.30
2018-03-25T04:30:41.093Z,72.20
2018-03-25T04:33:08.576Z,74.00
2018-03-25T04:35:36.031Z,73.50
2018-03-25T04:38:03.507Z,73.60
2018-03-25T04:40:31.740Z,74.20
2018-03-25T04:42:59.213Z,74.10
2018-03-25T04:45:26.664Z,74.30
2018-03-25T04:47:54.142Z,74.80
2018-03-25T04:50:22.384Z,75.40
2018-03-25T04:52:49.856Z,75.30
2018-03-25T04:55:17.317Z,75.60
2018-03-25T04:57:44.792Z,75.60
2018-03-25T05:00:13.023Z,76.00
2018-03-25T05:02:40.500Z,75.90
2018-03-25T05:05:07.962Z,76.00
2018-03-25T05:07:35.433Z,75.50
2018-03-25T05:10:02.915Z,75.60
2018-03-25T05:12:31.180Z,76.20
2018-03-25T05:14:59.411Z,76.40
2018-03-25T05:17:26.880Z,76.30
2018-03-25T05:19:54.365Z,75.80
2018-03-25T05:22:22.606Z,75.50
2018-03-25T05:24:50.094Z,75.40
2018-03-25T05:27:17.572Z,75.80
2018-03-25T05:29:45.797Z,76.00
2018-03-25T05:32:13.271Z,76.00
2018-03-25T05:34:40.740Z,76.10
2018-03-25T05:37:08.203Z,76.30
2018-03-25T05:39:36.443Z,76.80
2018-03-25T05:42:03.901Z,76.80
2018-03-25T05:44:31.374Z,76.00
2018-03-25T05:46:58.840Z,76.00
2018-03-25T05:49:26.313Z,76.00
2018-03-25T05:51:54.544Z,76.50
2018-03-25T05:54:22.012Z,76.50
2018-03-25T05:56:49.480Z,76.90
2018-03-25T05:59:16.958Z,76.20
2018-03-25T06:01:45.185Z,76.50
2018-03-25T06:04:12.655Z,75.80
2018-03-25T06:06:40.122Z,76.10
2018-03-25T06:09:07.733Z,76.30
2018-03-25T06:11:35.200Z,75.90
2018-03-25T06:14:02.678Z,75.00
2018-03-25T06:16:30.131Z,75.10
2018-03-25T06:18:57.628Z,75.20
2018-03-25T06:21:25.096Z,75.00
2018-03-25T06:23:53.327Z,74.80
2018-03-25T06:26:20.807Z,74.60
2018-03-25T06:28:48.264Z,73.80
2018-03-25T06:31:15.743Z,74.20
2018-03-25T06:33:43.973Z,73.20
2018-03-25T06:36:11.500Z,72.80
2018-03-25T06:38:39.737Z,71.50
2018-03-25T06:41:07.209Z,71.50
2018-03-25T06:43:34.689Z,72.30
2018-03-25T06:46:02.168Z,71.50
2018-03-25T06:48:29.646Z,72.50
2018-03-25T06:50:57.115Z,72.10
2018-03-25T06:53:25.346Z,71.80
2018-03-25T06:55:52.845Z,71.70
2018-03-25T06:58:20.310Z,72.60
2018-03-25T07:00:47.792Z,72.90
2018-03-25T07:03:16.024Z,73.50
2018-03-25T07:05:43.498Z,73.20
2018-03-25T07:08:10.961Z,72.80
2018-03-25T07:10:38.441Z,73.10
2018-03-25T07:13:06.671Z,72.80
2018-03-25T07:15:34.158Z,72.50
2018-03-25T07:18:01.614Z,71.10
2018-03-25T07:20:29.121Z,72.10
2018-03-25T07:22:56.578Z,72.50
2018-03-25T07:25:24.061Z,71.40
2018-03-25T07:27:51.531Z,71.30
2018-03-25T07:30:18.999Z,69.80
2018-03-25T07:32:46.477Z,68.20
2018-03-25T07:35:13.936Z,67.90
2018-03-25T07:37:42.201Z,66.10
2018-03-25T07:40:09.645Z,66.00
2018-03-25T07:42:37.150Z,63.70
2018-03-25T07:45:04.607Z,62.80
2018-03-25T07:47:32.076Z,61.30
2018-03-25T07:49:59.635Z,57.40
2018-03-25T07:52:27.028Z,57.10
2018-03-25T07:54:54.494Z,56.80
2018-03-25T07:57:22.010Z,56.10
2018-03-25T07:59:49.467Z,56.30
2018-03-25T08:02:16.947Z,53.50
2018-03-25T08:04:44.420Z,51.30
2018-03-25T08:07:11.885Z,49.40
2018-03-25T08:09:39.343Z,47.00
2018-03-25T08:12:06.814Z,47.60
2018-03-25T08:14:34.277Z,50.50
2018-03-25T08:17:02.528Z,43.40
2018-03-25T08:19:30.008Z,43.20
2018-03-25T08:21:57.479Z,41.60
2018-03-25T08:24:25.719Z,38.00
2018-03-25T08:26:53.188Z,37.90
2018-03-25T08:29:20.677Z,37.90
2018-03-25T08:31:48.924Z,35.30
2018-03-25T08:34:16.395Z,35.20
2018-03-25T08:36:43.901Z,34.00
2018-03-25T08:39:11.392Z,33.80
2018-03-25T08:41:38.892Z,34.70
2018-03-25T08:44:06.359Z,33.80
2018-03-25T08:46:34.717Z,33.70
2018-03-25T08:49:02.197Z,33.10
2018-03-25T08:51:29.669Z,33.00
2018-03-25T08:53:57.864Z,31.80
2018-03-25T08:56:25.400Z,30.60
2018-03-25T08:58:52.905Z,31.20
2018-03-25T09:01:21.201Z,30.10
2018-03-25T09:03:49.466Z,29.90
2018-03-25T09:06:17.885Z,30.10
2018-03-25T09:08:45.377Z,30.00
2018-03-25T09:11:12.852Z,29.60
2018-03-25T09:13:40.366Z,28.70
2018-03-25T09:16:08.013Z,29.80
2018-03-25T09:18:35.552Z,29.90
2018-03-25T09:21:03.068Z,29.70
2018-03-25T09:23:30.566Z,29.50
2018-03-25T09:25:58.058Z,30.20
2018-03-25T09:28:25.554Z,28.90
2018-03-25T09:30:53.030Z,28.60
2018-03-25T09:33:20.707Z,28.10
2018-03-25T09:35:48.977Z,28.70
2018-03-25T09:38:17.241Z,28.80
2018-03-25T09:40:45.624Z,29.90
2018-03-25T09:43:13.928Z,29.20
2018-03-25T09:45:41.394Z,29.20
2018-03-25T09:48:08.876Z,29.30
2018-03-25T09:50:37.363Z,29.30
2018-03-25T09:53:04.833Z,28.40
2018-03-25T09:55:32.304Z,27.80
2018-03-25T09:57:59.836Z,29.10
2018-03-25T10:00:30.221Z,28.90
2018-03-25T10:02:59.507Z,28.10
2018-03-25T10:05:27.749Z,27.80
2018-03-25T10:07:55.239Z,27.80
2018-03-25T10:10:23.493Z,29.30
2018-03-25T10:12:50.957Z,29.20
2018-03-25T10:15:18.438Z,29.00
2018-03-25T10:17:46.693Z,28.30
2018-03-25T10:20:14.222Z,28.20
2018-03-25T10:22:41.780Z,29.20
2018-03-25T10:25:09.358Z,27.60
2018-03-25T10:27:37.014Z,28.00
2018-03-25T10:30:04.531Z,28.70
2018-03-25T10:32:32.094Z,29.70
2018-03-25T10:34:59.696Z,29.40
2018-03-25T10:37:27.169Z,29.20
2018-03-25T10:39:54.701Z,29.30
2018-03-25T10:42:22.180Z,29.40
2018-03-25T10:44:49.676Z,30.40
2018-03-25T10:47:17.221Z,28.90
2018-03-25T10:49:45.519Z,28.80
2018-03-25T10:52:12.992Z,28.80
2018-03-25T10:54:40.484Z,28.50
2018-03-25T10:57:07.989Z,29.20
2018-03-25T10:59:35.482Z,29.10
2018-03-25T11:02:02.993Z,29.90
2018-03-25T11:04:31.236Z,30.00
2018-03-25T11:06:59.532Z,30.00
2018-03-25T11:09:27.810Z,29.70
2018-03-25T11:11:56.148Z,29.70
2018-03-25T11:14:23.736Z,29.60
2018-03-25T11:16:51.221Z,29.40
2018-03-25T11:19:19.508Z,29.80
2018-03-25T11:21:46.986Z,29.70
2018-03-25T11:24:15.196Z,30.10
2018-03-25T11:26:42.709Z,29.90
2018-03-25T11:29:10.176Z,29.50
2018-03-25T11:31:37.664Z,30.60
2018-03-25T11:34:05.137Z,30.50
2018-03-25T11:36:32.688Z,30.90
2018-03-25T11:39:00.157Z,30.30
2018-03-25T11:41:27.628Z,30.30
2018-03-25T11:43:55.113Z,29.80
2018-03-25T11:46:22.606Z,31.80
2018-03-25T11:48:50.116Z,30.10
2018-03-25T11:51:17.597Z,29.70
2018-03-25T11:53:45.088Z,30.70
2018-03-25T11:56:12.588Z,31.60
2018-03-25T11:58:40.072Z,29.70
2018-03-25T12:01:07.564Z,29.30
2018-03-25T12:03:35.042Z,29.10
2018-03-25T12:06:02.529Z,32.00
2018-03-25T12:08:30.017Z,30.40
2018-03-25T12:10:57.515Z,33.00
2018-03-25T12:13:25.004Z,31.20
2018-03-25T12:15:52.509Z,31.30
2018-03-25T12:18:19.989Z,32.10
2018-03-25T12:20:48.249Z,32.80
2018-03-25T12:23:15.730Z,32.80
2018-03-25T12:25:43.966Z,32.50
2018-03-25T12:28:11.470Z,32.40
2018-03-25T12:30:39.712Z,32.60
2018-03-25T12:33:07.213Z,32.60
2018-03-25T12:35:35.457Z,32.40
2018-03-25T12:38:02.944Z,32.30
2018-03-25T12:40:30.418Z,33.40
2018-03-25T12:42:57.908Z,33.40
2018-03-25T12:45:25.380Z,35.00
2018-03-25T12:47:52.930Z,32.40
2018-03-25T12:50:20.432Z,33.40
2018-03-25T12:52:48.692Z,33.40
2018-03-25T12:55:16.178Z,33.40
2018-03-25T12:57:43.698Z,31.80
2018-03-25T13:00:11.173Z,33.50
2018-03-25T13:02:39.451Z,35.00
2018-03-25T13:05:07.710Z,33.10
2018-03-25T13:07:35.200Z,33.00
2018-03-25T13:10:02.708Z,34.70
2018-03-25T13:12:30.218Z,35.30
2018-03-25T13:14:57.732Z,34.40
2018-03-25T13:17:25.231Z,34.60
2018-03-25T13:19:53.470Z,33.10
2018-03-25T13:22:21.002Z,33.70
2018-03-25T13:24:48.487Z,34.10
2018-03-25T13:27:15.970Z,34.80
2018-03-25T13:29:43.450Z,34.30
2018-03-25T13:32:10.945Z,34.70
2018-03-25T13:34:38.439Z,35.90
2018-03-25T13:37:06.685Z,35.50
2018-03-25T13:39:34.179Z,35.40
2018-03-25T13:42:02.452Z,36.30
2018-03-25T13:44:30.738Z,35.70
2018-03-25T13:46:59.009Z,35.60
2018-03-25T13:49:27.309Z,35.80
2018-03-25T13:51:54.781Z,35.70
2018-03-25T13:54:22.269Z,34.50
2018-03-25T13:56:49.732Z,35.70
2018-03-25T13:59:17.217Z,36.00
2018-03-25T14:01:45.464Z,35.40
2018-03-25T14:04:13.713Z,35.30
2018-03-25T14:06:41.187Z,35.30
2018-03-25T14:09:08.664Z,35.70
2018-03-25T14:11:36.153Z,36.10
2018-03-25T14:14:04.454Z,36.40
2018-03-25T14:16:31.931Z,36.30
2018-03-25T14:18:59.408Z,35.80
2018-03-25T14:21:26.881Z,36.60
2018-03-25T14:23:54.360Z,36.60
2018-03-25T14:26:22.613Z,36.80
2018-03-25T14:28:50.092Z,36.80
2018-03-25T14:31:18.332Z,37.00
2018-03-25T14:33:45.821Z,37.00
2018-03-25T14:36:14.054Z,36.30
2018-03-25T14:38:41.534Z,36.30
2018-03-25T14:41:09.000Z,36.10
2018-03-25T14:43:36.484Z,36.20
2018-03-25T14:46:03.954Z,35.60
2018-03-25T14:48:31.438Z,35.30
2018-03-25T14:50:59.692Z,36.20
2018-03-25T14:53:27.193Z,36.20
2018-03-25T14:55:54.694Z,36.80
2018-03-25T14:58:22.157Z,36.70
2018-03-25T15:00:49.644Z,37.00
2018-03-25T15:03:17.134Z,36.50
2018-03-25T15:05:45.401Z,35.90
2018-03-25T15:08:12.896Z,35.90
2018-03-25T15:10:40.391Z,36.20
2018-03-25T15:13:07.864Z,35.80
2018-03-25T15:15:35.348Z,37.20
2018-03-25T15:18:02.822Z,35.80
2018-03-25T15:20:31.057Z,36.30
2018-03-25T15:22:58.512Z,36.30
2018-03-25T15:25:26.001Z,36.20
2018-03-25T15:27:53.469Z,37.20
2018-03-25T15:30:21.711Z,36.10
2018-03-25T15:32:49.181Z,36.10
2018-03-25T15:35:16.671Z,36.30
2018-03-25T15:37:44.136Z,36.80
2018-03-25T15:40:11.617Z,36.90
2018-03-25T15:42:39.087Z,37.30
2018-03-25T15:45:06.565Z,37.20
2018-03-25T15:47:34.034Z,36.50
2018-03-25T15:50:01.524Z,36.70
2018-03-25T15:52:28.985Z,37.30
2018-03-25T15:54:56.490Z,37.60
2018-03-25T15:57:23.961Z,37.60
2018-03-25T15:59:51.445Z,37.90
2018-03-25T16:02:19.680Z,38.50
2018-03-25T16:04:47.168Z,38.50
2018-03-25T16:07:15.404Z,38.00
2018-03-25T16:09:42.932Z,38.00
2018-03-25T16:12:10.362Z,38.40
2018-03-25T16:14:37.840Z,38.70
2018-03-25T16:17:05.321Z,38.70
2018-03-25T16:19:32.796Z,39.20
2018-03-25T16:22:00.337Z,39.40
2018-03-25T16:24:28.529Z,39.10
2018-03-25T16:26:56.013Z,39.00
2018-03-25T16:29:23.476Z,39.50
2018-03-25T16:31:51.725Z,40.70
2018-03-25T16:34:19.186Z,40.70
2018-03-25T16:36:46.670Z,40.40
2018-03-25T16:39:14.907Z,40.40
2018-03-25T16:41:43.167Z,40.90
2018-03-25T16:44:10.657Z,40.80
2018-03-25T16:46:38.126Z,40.90
2018-03-25T16:49:05.597Z,40.90
2018-03-25T16:51:33.841Z,41.10
2018-03-25T16:54:01.337Z,41.00
2018-03-25T16:56:29.593Z,41.60
2018-03-25T16:58:57.062Z,41.60
2018-03-25T17:01:25.325Z,42.30
2018-03-25T17:03:52.808Z,42.30
2018-03-25T17:06:21.048Z,41.60
2018-03-25T17:08:48.531Z,41.50
2018-03-25T17:11:16.812Z,42.70
2018-03-25T17:13:45.046Z,43.20
2018-03-25T17:16:12.545Z,43.20
2018-03-25T17:18:40.883Z,43.80
2018-03-25T17:21:08.484Z,43.70
2018-03-25T17:23:37.062Z,42.10
2018-03-25T17:26:05.356Z,41.90
2018-03-25T17:28:32.966Z,41.90
2018-03-25T17:31:00.414Z,41.10
2018-03-25T17:33:27.908Z,41.50
2018-03-25T17:35:55.395Z,42.10
2018-03-25T17:38:22.892Z,41.90
2018-03-25T17:40:50.504Z,42.40
2018-03-25T17:43:18.077Z,42.50
2018-03-25T17:45:45.686Z,42.40
2018-03-25T17:48:13.194Z,43.50
2018-03-25T17:50:40.683Z,42.60
2018-03-25T17:53:08.253Z,43.20
2018-03-25T17:55:35.820Z,43.90
2018-03-25T17:58:04.022Z,43.80
2018-03-25T18:00:32.271Z,43.20
2018-03-25T18:02:59.743Z,43.10
2018-03-25T18:05:27.517Z,43.80
2018-03-25T18:07:55.791Z,44.30
2018-03-25T18:10:23.291Z,44.20
2018-03-25T18:12:50.788Z,43.80
2018-03-25T18:15:18.257Z,44.20
2018-03-25T18:17:45.738Z,43.80
2018-03-25T18:20:13.987Z,44.90
2018-03-25T18:22:41.490Z,44.80
2018-03-25T18:25:08.965Z,44.60
2018-03-25T18:27:36.464Z,45.20
2018-03-25T18:30:03.970Z,44.90
2018-03-25T18:32:31.465Z,45.50
2018-03-25T18:34:58.925Z,46.20
2018-03-25T18:37:26.422Z,46.30
2018-03-25T18:39:54.660Z,47.70
2018-03-25T18:42:22.148Z,47.60
2018-03-25T18:44:50.396Z,46.90
2018-03-25T18:47:17.857Z,46.90
2018-03-25T18:49:45.398Z,47.60
2018-03-25T18:52:12.878Z,48.20
2018-03-25T18:54:40.361Z,49.20
2018-03-25T18:57:08.627Z,48.60
2018-03-25T18:59:36.881Z,48.90
2018-03-25T19:02:04.350Z,48.80
2018-03-25T19:04:31.870Z,49.50
2018-03-25T19:06:59.352Z,50.30
2018-03-25T19:09:26.825Z,52.50
2018-03-25T19:11:54.305Z,52.30
2018-03-25T19:14:22.591Z,53.80
2018-03-25T19:16:50.079Z,53.80
2018-03-25T19:19:17.549Z,54.20
2018-03-25T19:21:45.022Z,54.00
2018-03-25T19:24:12.502Z,53.30
2018-03-25T19:26:39.970Z,53.30
2018-03-25T19:29:08.209Z,52.90
2018-03-25T19:31:35.684Z,52.90
2018-03-25T19:34:03.161Z,53.40
2018-03-25T19:36:31.402Z,54.20
2018-03-25T19:38:58.872Z,54.00
2018-03-25T19:41:26.345Z,54.30
2018-03-25T19:43:54.587Z,54.60
2018-03-25T19:46:22.046Z,54.50
2018-03-25T19:48:49.530Z,54.50
2018-03-25T19:51:17.002Z,53.60
2018-03-25T19:53:45.266Z,55.70
2018-03-25T19:56:13.536Z,55.50
2018-03-25T19:58:41.424Z,55.40
2018-03-25T20:01:08.943Z,55.80
2018-03-25T20:03:36.421Z,55.30
2018-03-25T20:06:04.682Z,55.10
2018-03-25T20:08:32.167Z,55.10
2018-03-25T20:11:00.405Z,55.30
2018-03-25T20:13:27.881Z,55.30
2018-03-25T20:15:55.361Z,55.30
2018-03-25T20:18:23.595Z,55.60
2018-03-25T20:20:51.080Z,55.50
2018-03-25T20:23:18.545Z,56.30
2018-03-25T20:25:46.038Z,56.30
2018-03-25T20:28:13.501Z,56.40
2018-03-25T20:30:40.977Z,56.40
2018-03-25T20:33:08.441Z,56.70
2018-03-25T20:35:35.915Z,56.90
2018-03-25T20:38:03.379Z,57.00
2018-03-25T20:40:30.868Z,56.70
2018-03-25T20:42:59.089Z,56.90
2018-03-25T20:45:26.557Z,56.80
2018-03-25T20:47:54.029Z,57.00
2018-03-25T20:50:21.497Z,57.50
2018-03-25T20:52:48.980Z,57.10
2018-03-25T20:55:16.455Z,57.30
2018-03-25T20:57:43.916Z,56.60
2018-03-25T21:00:11.394Z,57.10
2018-03-25T21:02:38.866Z,57.30
2018-03-25T21:05:06.346Z,57.50
2018-03-25T21:07:34.576Z,57.20
2018-03-25T21:10:02.066Z,57.10
2018-03-25T21:12:29.557Z,56.50
2018-03-25T21:14:57.787Z,57.40
2018-03-25T21:17:25.257Z,57.30
2018-03-25T21:19:52.725Z,56.30
2018-03-25T21:22:20.229Z,56.10
2018-03-25T21:24:47.685Z,56.60
2018-03-25T21:27:15.161Z,55.90
2018-03-25T21:29:42.616Z,55.60
2018-03-25T21:32:10.086Z,55.80
2018-03-25T21:34:37.548Z,56.00
2018-03-25T21:37:05.017Z,56.30
2018-03-25T21:39:32.478Z,55.90
2018-03-25T21:41:59.954Z,56.00
2018-03-25T21:44:28.182Z,55.90
2018-03-25T21:46:55.656Z,55.80
2018-03-25T21:49:23.122Z,55.90
2018-03-25T21:51:50.657Z,55.90
2018-03-25T21:54:18.836Z,57.30
2018-03-25T21:56:46.317Z,57.30
2018-03-25T21:59:13.773Z,58.00
2018-03-25T22:01:41.246Z,57.30
2018-03-25T22:04:09.481Z,57.60
2018-03-25T22:06:36.953Z,57.60
2018-03-25T22:09:05.149Z,58.30
2018-03-25T22:11:33.410Z,59.00
2018-03-25T22:14:00.919Z,58.80
2018-03-25T22:16:29.152Z,59.90
2018-03-25T22:18:59.451Z,59.80
2018-03-25T22:21:26.937Z,60.60
2018-03-25T22:23:54.420Z,59.70
2018-03-25T22:26:21.888Z,59.40
2018-03-25T22:28:49.357Z,59.20
2018-03-25T22:31:16.822Z,59.80
2018-03-25T22:33:44.296Z,59.70
2018-03-25T22:36:11.775Z,59.70
2018-03-25T22:38:39.253Z,60.80
2018-03-25T22:41:07.485Z,61.60
2018-03-25T22:43:34.961Z,61.60
2018-03-25T22:46:02.452Z,62.40
2018-03-25T22:48:30.705Z,62.60
2018-03-25T22:50:58.167Z,62.50
2018-03-25T22:53:25.635Z,62.10
2018-03-25T22:55:53.896Z,62.40
2018-03-25T22:58:21.377Z,62.30
2018-03-25T23:00:49.616Z,62.70
2018-03-25T23:03:17.100Z,62.60
2018-03-25T23:05:45.340Z,64.00
2018-03-25T23:08:12.831Z,64.00
2018-03-25T23:10:41.059Z,61.30
2018-03-25T23:13:08.536Z,61.30
2018-03-25T23:15:35.993Z,60.70
2018-03-25T23:18:03.452Z,60.00
2018-03-25T23:20:30.933Z,60.00
2018-03-25T23:22:59.163Z,60.40
2018-03-25T23:25:26.632Z,60.40
2018-03-25T23:27:54.093Z,61.00
2018-03-25T23:30:21.580Z,61.00
2018-03-25T23:32:49.822Z,62.20
2018-03-25T23:35:17.296Z,61.20
2018-03-25T23:37:44.768Z,61.20
2018-03-25T23:40:12.266Z,61.80
2018-03-25T23:42:39.734Z,61.50
2018-03-25T23:45:07.208Z,61.00
2018-03-25T23:47:34.673Z,60.70
2018-03-25T23:50:02.141Z,60.30
2018-03-25T23:52:29.620Z,60.30
2018-03-25T23:54:57.857Z,61.40
2018-03-25T23:57:25.328Z,61.30
2018-03-25T23:59:52.809Z,61.80
